Centreville, Michigan
Current Conditions -  °F | °C
As of 2:35 AM on Thursday 18 Dec 2014 (Local Time) from KHAI Reporting Station
Overcast Overcast  
Wind Chill: 21°   Ceiling: 2500
Heat Index: 29°   Visibility: 10mi
Dew Point: 22°   Wind: 8mph
Humidity: 76%   Direction: 280°W
Pressure: 30.23"   Gusts: NA
Location:  41.92°N, 85.53°W
Report Text: KHAI 180735Z AUTO 28007KT 10SM OVC025 M02/M05 A3023 RMK AO2 T10171055
Loading
Personal Weather Stations






























Interactive Weather Map New forecast layout! Learn more

10-Day Weather Forecast

Advertisements
Track Severe Weather on mobile